Terminal Aerodrome Forecast
Issued by NWS

Home | Current Version | Previous Version | Graphics & Text | Print | Product List | Glossary On
Versions: 1 2 3 4 5 6 7 8 9 10 11 12 13 14 15 16 17
000
FTUS43 KBIS 010200 AAA
TAFMOT
TAF AMD
KMOT 010204Z 0102/0124 22006KT P6SM SKC
     FM010600 23007KT P6SM OVC050
     FM010900 27006KT 4SM -SN OVC020
     FM011600 27012KT P6SM SCT020=

USA.gov is the U.S. government's official web portal to all federal, state and local government web resources and services.